createdAt,value
2023-05-06T00:02:15.127Z,10.92
2023-05-06T00:04:43.545Z,10.51
2023-05-06T00:07:12.764Z,10.19
2023-05-06T00:09:40.817Z,9.94
2023-05-06T00:12:08.913Z,9.74
2023-05-06T00:14:36.938Z,9.55
2023-05-06T00:17:04.997Z,9.79
2023-05-06T00:19:33.587Z,10.62
2023-05-06T00:22:01.583Z,11.31
2023-05-06T00:24:30.058Z,11.75
2023-05-06T00:26:58.536Z,11.64
2023-05-06T00:29:26.576Z,11.01
2023-05-06T00:31:54.603Z,10.48
2023-05-06T00:34:22.786Z,10.09
2023-05-06T00:36:51.239Z,9.78
2023-05-06T00:39:19.582Z,9.57
2023-05-06T00:41:47.567Z,9.96
2023-05-06T00:44:15.531Z,10.76
2023-05-06T00:46:43.907Z,11.41
2023-05-06T00:49:12.391Z,11.88
2023-05-06T00:51:40.567Z,12.22
2023-05-06T00:54:09.301Z,12.19
2023-05-06T00:56:37.371Z,11.47
2023-05-06T00:59:05.312Z,10.85
2023-05-06T01:01:33.535Z,10.36
2023-05-06T01:04:01.739Z,9.95
2023-05-06T01:06:45.574Z,9.63
2023-05-06T01:09:22.974Z,9.32
2023-05-06T01:11:59.829Z,9.06
2023-05-06T01:14:50.201Z,9.03
2023-05-06T01:17:18.925Z,9.88
2023-05-06T01:19:49.849Z,10.63
2023-05-06T01:22:17.861Z,11.18
2023-05-06T01:24:47.072Z,11.60
2023-05-06T01:27:17.030Z,11.94
2023-05-06T01:29:46.453Z,11.83
2023-05-06T01:32:41.911Z,11.10
2023-05-06T01:35:40.280Z,10.31
2023-05-06T01:38:26.429Z,9.74
2023-05-06T01:40:55.440Z,9.34
2023-05-06T01:43:27.691Z,9.06
2023-05-06T01:45:55.715Z,8.81
2023-05-06T01:48:25.966Z,8.58
2023-05-06T01:50:54.084Z,8.39
2023-05-06T01:53:22.443Z,8.75
2023-05-06T01:55:50.403Z,9.63
2023-05-06T01:58:18.573Z,10.34
2023-05-06T02:00:46.680Z,10.85
2023-05-06T02:03:15.237Z,11.20
2023-05-06T02:05:43.594Z,11.46
2023-05-06T02:08:12.133Z,11.05
2023-05-06T02:10:43.168Z,10.27
2023-05-06T02:13:12.040Z,9.66
2023-05-06T02:15:40.144Z,9.19
2023-05-06T02:18:10.639Z,8.81
2023-05-06T02:20:38.797Z,8.81
2023-05-06T02:23:07.484Z,9.56
2023-05-06T02:25:35.675Z,10.26
2023-05-06T02:28:03.890Z,10.75
2023-05-06T02:30:32.372Z,11.09
2023-05-06T02:33:00.449Z,11.14
2023-05-06T02:35:28.529Z,10.52
2023-05-06T02:37:56.585Z,9.75
2023-05-06T02:40:24.591Z,9.17
2023-05-06T02:42:52.703Z,8.72
2023-05-06T02:45:20.809Z,8.46
2023-05-06T02:47:48.873Z,8.98
2023-05-06T02:50:17.165Z,9.77
2023-05-06T02:52:45.125Z,10.34
2023-05-06T02:55:13.418Z,10.76
2023-05-06T02:57:41.571Z,11.03
2023-05-06T03:00:13.209Z,11.07
2023-05-06T03:02:41.321Z,10.37
2023-05-06T03:05:10.357Z,9.63
2023-05-06T03:07:38.781Z,9.04
2023-05-06T03:10:08.114Z,8.61
2023-05-06T03:12:37.554Z,8.32
2023-05-06T03:15:07.390Z,8.45
2023-05-06T03:17:36.154Z,9.25
2023-05-06T03:20:08.370Z,9.98
2023-05-06T03:22:36.928Z,10.52
2023-05-06T03:25:06.112Z,10.78
2023-05-06T03:27:34.526Z,10.38
2023-05-06T03:30:06.568Z,9.75
2023-05-06T03:32:34.849Z,9.33
2023-05-06T03:35:04.346Z,8.98
2023-05-06T03:37:32.999Z,8.70
2023-05-06T03:40:04.345Z,8.64
2023-05-06T03:42:32.765Z,9.38
2023-05-06T03:45:01.813Z,10.30
2023-05-06T03:47:31.888Z,10.93
2023-05-06T03:50:00.184Z,11.38
2023-05-06T03:52:28.538Z,11.35
2023-05-06T03:54:56.888Z,10.87
2023-05-06T03:57:25.346Z,10.40
2023-05-06T03:59:53.411Z,10.10
2023-05-06T04:02:22.060Z,10.00
2023-05-06T04:04:50.486Z,10.29
2023-05-06T04:07:18.406Z,11.25
2023-05-06T04:09:46.639Z,12.19
2023-05-06T04:12:15.424Z,12.91
2023-05-06T04:14:43.505Z,12.82
2023-05-06T04:17:11.911Z,12.54
2023-05-06T04:19:40.429Z,12.41
2023-05-06T04:22:08.379Z,12.44
2023-05-06T04:24:37.006Z,12.60
2023-05-06T04:27:05.296Z,12.74
2023-05-06T04:29:33.961Z,13.03
2023-05-06T04:32:04.860Z,13.52
2023-05-06T04:34:36.235Z,13.92
2023-05-06T04:37:05.983Z,14.27
2023-05-06T04:39:48.889Z,14.73
2023-05-06T04:42:17.254Z,15.00
2023-05-06T04:44:53.310Z,15.40
2023-05-06T04:47:24.023Z,15.87
2023-05-06T04:49:52.618Z,16.16
2023-05-06T04:52:22.252Z,16.57
2023-05-06T04:54:50.931Z,17.02
2023-05-06T04:57:18.928Z,17.47
2023-05-06T04:59:47.518Z,17.90
2023-05-06T05:02:15.696Z,18.35
2023-05-06T05:04:44.265Z,18.59
2023-05-06T05:07:12.342Z,18.79
2023-05-06T05:09:40.679Z,19.06
2023-05-06T05:12:08.861Z,19.16
2023-05-06T05:14:39.416Z,19.04
2023-05-06T05:17:08.741Z,19.21
2023-05-06T05:19:38.263Z,19.42
2023-05-06T05:33:04.767Z,19.80
2023-05-06T05:35:31.824Z,19.81
2023-05-06T05:37:58.857Z,20.03
2023-05-06T05:40:26.080Z,20.65
2023-05-06T05:42:53.827Z,21.25
2023-05-06T05:45:24.980Z,21.30
2023-05-06T05:47:53.448Z,21.07
2023-05-06T05:50:22.146Z,20.97
2023-05-06T05:52:49.389Z,20.78
2023-05-06T05:55:17.813Z,20.88
2023-05-06T05:57:45.763Z,21.08
2023-05-06T06:00:13.840Z,21.14
2023-05-06T06:02:46.732Z,21.47
2023-05-06T06:05:18.964Z,21.70
2023-05-06T06:07:46.321Z,21.94
2023-05-06T06:10:14.810Z,21.97
2023-05-06T06:12:43.555Z,22.21
2023-05-06T06:15:11.455Z,22.62
2023-05-06T06:17:40.787Z,22.96
2023-05-06T06:20:08.527Z,22.93
2023-05-06T06:22:35.262Z,22.99
2023-05-06T06:25:01.887Z,23.13
2023-05-06T06:27:29.934Z,22.99
2023-05-06T06:29:57.254Z,22.27
2023-05-06T06:32:23.977Z,21.88
2023-05-06T06:34:50.814Z,21.84
2023-05-06T06:37:17.470Z,21.95
2023-05-06T06:39:44.263Z,22.10
2023-05-06T06:42:11.075Z,22.13
2023-05-06T06:44:46.828Z,22.13
2023-05-06T06:47:13.483Z,22.29
2023-05-06T06:49:40.335Z,22.33
2023-05-06T06:52:06.931Z,22.34
2023-05-06T06:54:33.567Z,22.04
2023-05-06T06:57:00.893Z,21.42
2023-05-06T06:59:27.554Z,20.62
2023-05-06T07:01:54.201Z,20.45
2023-05-06T07:04:21.086Z,20.64
2023-05-06T07:06:47.882Z,21.03
2023-05-06T07:09:14.567Z,21.52
2023-05-06T07:11:41.319Z,21.99
2023-05-06T07:14:12.773Z,21.96
2023-05-06T07:16:39.555Z,21.85
2023-05-06T07:19:06.263Z,22.00
2023-05-06T07:21:32.861Z,22.10
2023-05-06T07:23:59.622Z,22.33
2023-05-06T07:26:26.318Z,22.40
2023-05-06T07:28:53.031Z,22.56
2023-05-06T07:31:20.466Z,22.58
2023-05-06T07:33:47.526Z,22.58
2023-05-06T07:36:14.275Z,22.59
2023-05-06T07:38:41.213Z,22.31
2023-05-06T07:41:07.913Z,22.04
2023-05-06T07:43:34.844Z,21.97
2023-05-06T07:46:04.207Z,21.86
2023-05-06T07:48:32.460Z,21.62
2023-05-06T07:50:59.408Z,21.34
2023-05-06T07:53:26.284Z,21.17
2023-05-06T07:55:55.542Z,20.71
2023-05-06T07:58:22.195Z,20.88
2023-05-06T08:00:48.802Z,20.73
2023-05-06T08:03:16.371Z,20.38
2023-05-06T08:05:43.120Z,20.05
2023-05-06T08:08:10.290Z,19.64
2023-05-06T08:10:37.097Z,19.51
2023-05-06T08:13:03.688Z,19.32
2023-05-06T08:15:30.370Z,18.97
2023-05-06T08:17:58.787Z,18.71
2023-05-06T08:20:27.022Z,19.02
2023-05-06T08:22:53.646Z,19.12
2023-05-06T08:25:20.337Z,19.07
2023-05-06T08:27:47.191Z,19.19
2023-05-06T08:30:17.153Z,19.28
2023-05-06T08:32:43.870Z,19.10
2023-05-06T08:35:10.801Z,18.95
2023-05-06T08:37:37.637Z,18.73
2023-05-06T08:40:28.817Z,18.69
2023-05-06T08:42:56.906Z,18.57
2023-05-06T08:45:28.696Z,18.45
2023-05-06T08:47:56.182Z,18.31
2023-05-06T08:50:22.791Z,18.07
2023-05-06T08:52:49.503Z,17.93
2023-05-06T08:55:16.327Z,17.95
2023-05-06T08:57:43.093Z,18.03
2023-05-06T09:00:10.775Z,17.79
2023-05-06T09:02:39.844Z,17.56
2023-05-06T09:05:09.558Z,17.29
2023-05-06T09:07:36.532Z,17.11
2023-05-06T09:10:12.017Z,17.22
2023-05-06T09:12:41.430Z,17.45
2023-05-06T09:15:15.852Z,17.82
2023-05-06T09:17:42.529Z,17.97
2023-05-06T09:20:11.894Z,17.94
2023-05-06T09:22:39.896Z,17.92
2023-05-06T09:25:07.119Z,17.93
2023-05-06T09:27:36.125Z,17.94
2023-05-06T09:30:13.441Z,17.96
2023-05-06T09:32:41.265Z,18.04
2023-05-06T09:35:09.128Z,17.99
2023-05-06T09:37:36.149Z,17.86
2023-05-06T09:40:03.044Z,17.82
2023-05-06T09:42:30.382Z,17.72
2023-05-06T09:45:08.068Z,17.76
2023-05-06T09:47:35.167Z,17.90
2023-05-06T09:50:02.633Z,18.04
2023-05-06T09:52:30.236Z,18.02
2023-05-06T09:54:57.241Z,18.08
2023-05-06T09:57:23.931Z,18.29
2023-05-06T09:59:53.613Z,18.59
2023-05-06T10:02:22.196Z,18.82
2023-05-06T10:04:49.419Z,18.85
2023-05-06T10:07:22.231Z,18.87
2023-05-06T10:09:50.855Z,18.94
2023-05-06T10:12:17.761Z,19.11
2023-05-06T10:14:44.603Z,19.19
2023-05-06T10:17:12.261Z,19.19
2023-05-06T10:19:41.363Z,19.18
2023-05-06T10:22:51.509Z,19.17
2023-05-06T10:25:35.170Z,19.11
2023-05-06T10:28:06.254Z,18.99
2023-05-06T10:30:34.826Z,18.99
2023-05-06T10:33:09.959Z,19.30
2023-05-06T10:35:59.887Z,19.30
2023-05-06T10:38:41.236Z,19.08
2023-05-06T10:41:08.498Z,19.04
2023-05-06T10:43:40.961Z,18.97
2023-05-06T10:46:17.254Z,18.93
2023-05-06T10:49:06.180Z,18.86
2023-05-06T10:51:34.027Z,18.70
2023-05-06T10:54:04.201Z,18.67
2023-05-06T10:57:02.479Z,18.62
2023-05-06T10:59:30.360Z,18.58
2023-05-06T11:02:04.038Z,18.53
2023-05-06T11:04:31.252Z,18.62
2023-05-06T11:07:11.778Z,18.67
2023-05-06T11:09:59.033Z,18.70
2023-05-06T11:12:54.699Z,18.79
2023-05-06T11:15:35.777Z,19.02
2023-05-06T11:18:26.368Z,19.19
2023-05-06T11:21:00.162Z,19.12
2023-05-06T11:24:02.552Z,19.10
2023-05-06T11:26:30.112Z,19.34
2023-05-06T11:28:56.745Z,19.15
2023-05-06T11:31:23.406Z,18.81
2023-05-06T11:33:52.171Z,18.70
2023-05-06T11:36:20.693Z,18.75
2023-05-06T11:38:51.707Z,18.90
2023-05-06T11:41:18.577Z,19.00
2023-05-06T11:43:49.575Z,18.98
2023-05-06T11:46:18.078Z,19.03
2023-05-06T11:48:44.743Z,19.11
2023-05-06T11:51:11.532Z,19.08
2023-05-06T11:53:38.246Z,19.03
2023-05-06T11:56:07.830Z,19.00
2023-05-06T11:58:34.413Z,19.13
2023-05-06T12:01:03.294Z,19.29
2023-05-06T12:03:31.281Z,19.23
2023-05-06T12:05:58.826Z,18.93
2023-05-06T12:08:33.157Z,18.84
2023-05-06T12:11:08.265Z,18.93
2023-05-06T12:13:36.151Z,18.95
2023-05-06T12:16:03.363Z,18.90
2023-05-06T12:18:30.519Z,18.82
2023-05-06T12:21:01.797Z,18.81
2023-05-06T12:23:28.623Z,18.86
2023-05-06T12:26:05.952Z,18.53
2023-05-06T12:28:35.068Z,18.34
2023-05-06T12:31:21.132Z,18.22
2023-05-06T12:33:49.226Z,18.31
2023-05-06T12:36:17.997Z,18.15
2023-05-06T12:38:51.988Z,18.12
2023-05-06T12:41:19.663Z,18.20
2023-05-06T12:43:46.491Z,18.17
2023-05-06T12:46:14.924Z,18.10
2023-05-06T12:48:57.280Z,17.97
2023-05-06T12:51:24.226Z,17.99
2023-05-06T12:53:50.953Z,17.91
2023-05-06T12:56:19.649Z,17.70
2023-05-06T12:59:02.664Z,17.59
2023-05-06T13:01:29.382Z,17.62
2023-05-06T13:03:57.718Z,17.49
2023-05-06T13:06:24.644Z,17.39
2023-05-06T13:08:51.363Z,17.34
2023-05-06T13:11:18.005Z,17.37
2023-05-06T13:13:44.645Z,17.20
2023-05-06T13:16:11.318Z,17.09
2023-05-06T13:18:38.311Z,16.93
2023-05-06T13:21:05.280Z,16.83
2023-05-06T13:23:34.415Z,16.71
2023-05-06T13:26:05.581Z,16.60
2023-05-06T13:28:33.324Z,16.53
2023-05-06T13:31:00.416Z,16.45
2023-05-06T13:33:27.096Z,16.29
2023-05-06T13:35:53.840Z,16.20
2023-05-06T13:38:20.564Z,16.15
2023-05-06T13:40:50.163Z,16.08
2023-05-06T13:43:20.355Z,16.03
2023-05-06T13:45:46.984Z,15.98
2023-05-06T13:48:13.794Z,15.91
2023-05-06T13:50:45.340Z,15.81
2023-05-06T13:53:15.297Z,15.74
2023-05-06T13:55:43.084Z,15.65
2023-05-06T13:58:10.540Z,15.45
2023-05-06T14:00:37.199Z,15.25
2023-05-06T14:03:04.189Z,15.08
2023-05-06T14:05:31.865Z,14.97
2023-05-06T14:07:58.437Z,14.91
2023-05-06T14:10:25.170Z,14.82
2023-05-06T14:12:51.797Z,14.71
2023-05-06T14:15:18.512Z,14.63
2023-05-06T14:17:45.168Z,14.59
2023-05-06T14:20:11.912Z,14.58
2023-05-06T14:22:41.519Z,14.53
2023-05-06T14:25:09.716Z,14.48
2023-05-06T14:27:36.614Z,14.42
2023-05-06T14:30:09.458Z,14.40
2023-05-06T14:32:36.750Z,14.37
2023-05-06T14:35:04.107Z,14.34
2023-05-06T14:37:30.772Z,14.31
2023-05-06T14:39:57.413Z,14.28
2023-05-06T14:42:24.232Z,14.23
2023-05-06T14:44:50.953Z,14.15
2023-05-06T14:47:18.410Z,14.11
2023-05-06T14:49:45.055Z,14.11
2023-05-06T14:52:11.908Z,14.16
2023-05-06T14:54:41.701Z,14.13
2023-05-06T14:57:09.228Z,14.11
2023-05-06T14:59:36.477Z,14.09
2023-05-06T15:02:04.072Z,14.06
2023-05-06T15:04:30.685Z,14.03
2023-05-06T15:06:57.552Z,14.01
2023-05-06T15:09:27.107Z,13.98
2023-05-06T15:11:53.822Z,13.94
2023-05-06T15:14:20.533Z,13.91
2023-05-06T15:16:47.294Z,13.89
2023-05-06T15:19:14.000Z,13.84
2023-05-06T15:21:40.651Z,13.80
2023-05-06T15:24:08.072Z,13.74
2023-05-06T15:26:34.885Z,13.67
2023-05-06T15:29:01.509Z,13.54
2023-05-06T15:31:28.354Z,13.42
2023-05-06T15:33:55.445Z,13.31
2023-05-06T15:36:22.347Z,13.18
2023-05-06T15:38:52.023Z,13.08
2023-05-06T15:41:18.860Z,13.08
2023-05-06T15:43:45.448Z,13.76
2023-05-06T15:46:12.142Z,14.47
2023-05-06T15:48:38.828Z,14.31
2023-05-06T15:51:05.630Z,13.91
2023-05-06T15:53:32.338Z,13.60
2023-05-06T15:56:08.959Z,13.38
2023-05-06T15:58:43.271Z,13.21
2023-05-06T16:01:10.400Z,13.09
2023-05-06T16:03:37.764Z,13.00
2023-05-06T16:06:04.806Z,12.93
2023-05-06T16:08:31.458Z,12.88
2023-05-06T16:10:58.098Z,12.86
2023-05-06T16:13:28.008Z,12.84
2023-05-06T16:15:54.753Z,12.86
2023-05-06T16:18:21.532Z,12.90
2023-05-06T16:20:48.227Z,12.89
2023-05-06T16:23:15.604Z,12.85
2023-05-06T16:25:42.562Z,12.77
2023-05-06T16:28:09.331Z,12.66
2023-05-06T16:30:36.589Z,12.55
2023-05-06T16:33:09.983Z,12.42
2023-05-06T16:35:39.899Z,12.31
2023-05-06T16:38:06.813Z,12.20
2023-05-06T16:40:40.963Z,12.12
2023-05-06T16:43:08.668Z,12.04
2023-05-06T16:45:35.408Z,11.97
2023-05-06T16:48:02.115Z,11.99
2023-05-06T16:50:31.771Z,12.72
2023-05-06T16:52:58.400Z,13.46
2023-05-06T16:55:27.673Z,13.47
2023-05-06T16:57:54.522Z,13.04
2023-05-06T17:00:21.775Z,12.63
2023-05-06T17:02:48.530Z,12.35
2023-05-06T17:05:15.574Z,12.11
2023-05-06T17:07:42.283Z,11.95
2023-05-06T17:10:09.408Z,12.34
2023-05-06T17:12:36.582Z,13.11
2023-05-06T17:15:04.258Z,13.76
2023-05-06T17:17:32.107Z,14.18
2023-05-06T17:19:58.827Z,14.07
2023-05-06T17:22:26.512Z,13.36
2023-05-06T17:24:53.409Z,12.69
2023-05-06T17:27:20.071Z,12.24
2023-05-06T17:29:46.755Z,12.45
2023-05-06T17:32:13.492Z,13.08
2023-05-06T17:34:40.079Z,13.58
2023-05-06T17:37:07.247Z,13.84
2023-05-06T17:39:45.691Z,13.56
2023-05-06T17:42:12.746Z,12.88
2023-05-06T17:44:41.930Z,12.78
2023-05-06T17:47:09.224Z,13.37
2023-05-06T17:49:36.066Z,13.82
2023-05-06T17:52:02.777Z,13.89
2023-05-06T17:54:31.957Z,13.30
2023-05-06T17:57:04.541Z,12.65
2023-05-06T17:59:36.447Z,12.22
2023-05-06T18:02:07.983Z,12.80
2023-05-06T18:04:37.674Z,13.63
2023-05-06T18:07:04.726Z,14.03
2023-05-06T18:09:31.882Z,13.89
2023-05-06T18:11:59.688Z,13.19
2023-05-06T18:14:26.501Z,12.53
2023-05-06T18:16:53.188Z,12.65
2023-05-06T18:19:20.053Z,13.22
2023-05-06T18:21:46.816Z,13.65
2023-05-06T18:24:16.433Z,13.92
2023-05-06T18:26:45.797Z,14.13
2023-05-06T18:29:13.019Z,14.22
2023-05-06T18:31:39.780Z,14.21
2023-05-06T18:34:06.472Z,13.73
2023-05-06T18:36:34.326Z,12.93
2023-05-06T18:39:01.375Z,12.56
2023-05-06T18:41:28.221Z,12.93
2023-05-06T18:43:54.832Z,13.19
2023-05-06T18:46:26.272Z,13.41
2023-05-06T18:48:53.131Z,13.50
2023-05-06T18:51:20.805Z,13.64
2023-05-06T18:53:47.433Z,13.76
2023-05-06T18:56:14.155Z,13.67
2023-05-06T18:58:41.324Z,13.71
2023-05-06T19:01:08.987Z,13.82
2023-05-06T19:03:36.502Z,13.85
2023-05-06T19:06:07.018Z,13.82
2023-05-06T19:08:33.667Z,13.75
2023-05-06T19:11:00.726Z,13.64
2023-05-06T19:13:27.602Z,13.54
2023-05-06T19:15:54.490Z,13.51
2023-05-06T19:18:21.340Z,13.38
2023-05-06T19:20:48.091Z,13.44
2023-05-06T19:23:14.828Z,13.52
2023-05-06T19:25:41.483Z,13.48
2023-05-06T19:28:08.902Z,13.39
2023-05-06T19:30:35.765Z,13.33
2023-05-06T19:33:02.959Z,13.29
2023-05-06T19:35:29.696Z,13.13
2023-05-06T19:37:57.529Z,13.18
2023-05-06T19:40:24.411Z,13.27
2023-05-06T19:42:51.340Z,13.31
2023-05-06T19:45:18.998Z,13.20
2023-05-06T19:47:46.246Z,13.09
2023-05-06T19:50:13.110Z,12.99
2023-05-06T19:52:40.141Z,13.17
2023-05-06T19:55:07.485Z,13.18
2023-05-06T19:57:34.192Z,13.26
2023-05-06T20:00:09.094Z,13.41
2023-05-06T20:02:36.958Z,13.46
2023-05-06T20:05:05.544Z,13.48
2023-05-06T20:07:33.062Z,13.36
2023-05-06T20:09:59.849Z,13.22
2023-05-06T20:12:26.800Z,13.28
2023-05-06T20:14:54.189Z,13.31
2023-05-06T20:17:21.108Z,13.36
2023-05-06T20:19:48.762Z,13.32
2023-05-06T20:22:15.456Z,13.29
2023-05-06T20:24:42.269Z,13.28
2023-05-06T20:27:09.145Z,13.19
2023-05-06T20:29:35.811Z,13.23
2023-05-06T20:32:02.418Z,13.35
2023-05-06T20:34:29.265Z,13.29
2023-05-06T20:36:56.049Z,12.67
2023-05-06T20:39:23.312Z,11.81
2023-05-06T20:41:50.096Z,11.22
2023-05-06T20:44:16.695Z,11.49
2023-05-06T20:46:43.532Z,12.00
2023-05-06T20:49:10.354Z,12.32
2023-05-06T20:51:37.106Z,12.53
2023-05-06T20:54:03.916Z,12.56
2023-05-06T20:56:30.576Z,12.63
2023-05-06T20:58:57.316Z,12.76
2023-05-06T21:01:24.863Z,12.84
2023-05-06T21:03:57.475Z,12.98
2023-05-06T21:06:24.191Z,13.02
2023-05-06T21:08:51.398Z,13.00
2023-05-06T21:11:18.519Z,13.00
2023-05-06T21:13:48.227Z,12.52
2023-05-06T21:16:19.204Z,11.70
2023-05-06T21:18:46.026Z,11.60
2023-05-06T21:21:12.723Z,11.95
2023-05-06T21:23:39.255Z,12.25
2023-05-06T21:26:05.968Z,12.37
2023-05-06T21:28:32.595Z,12.54
2023-05-06T21:30:59.509Z,12.71
2023-05-06T21:33:26.244Z,12.75
2023-05-06T21:35:58.357Z,12.84
2023-05-06T21:38:27.366Z,12.85
2023-05-06T21:40:56.746Z,12.80
2023-05-06T21:43:23.401Z,12.60
2023-05-06T21:45:50.138Z,12.71
2023-05-06T21:48:16.929Z,12.88
2023-05-06T21:50:43.632Z,13.11
2023-05-06T21:53:10.254Z,13.25
2023-05-06T21:55:36.927Z,13.05
2023-05-06T21:58:03.580Z,11.99
2023-05-06T22:00:30.186Z,11.62
2023-05-06T22:02:57.014Z,11.90
2023-05-06T22:05:23.907Z,12.12
2023-05-06T22:07:50.589Z,11.80
2023-05-06T22:10:17.297Z,11.92
2023-05-06T22:12:44.054Z,12.14
2023-05-06T22:15:12.747Z,12.24
2023-05-06T22:17:39.939Z,12.43
2023-05-06T22:20:10.837Z,12.38
2023-05-06T22:22:37.717Z,12.40
2023-05-06T22:25:05.481Z,12.42
2023-05-06T22:27:32.511Z,12.34
2023-05-06T22:29:59.196Z,12.42
2023-05-06T22:32:25.826Z,12.48
2023-05-06T22:34:52.404Z,12.52
2023-05-06T22:37:19.111Z,12.68
2023-05-06T22:39:46.934Z,12.78
2023-05-06T22:42:13.564Z,12.85
2023-05-06T22:44:40.172Z,12.95
2023-05-06T22:47:06.712Z,13.02
2023-05-06T22:49:33.344Z,12.79
2023-05-06T22:51:59.954Z,11.95
2023-05-06T22:54:26.528Z,11.05
2023-05-06T22:56:53.201Z,11.10
2023-05-06T22:59:19.871Z,11.52
2023-05-06T23:01:46.617Z,11.88
2023-05-06T23:04:13.424Z,11.91
2023-05-06T23:06:40.466Z,12.03
2023-05-06T23:09:07.297Z,12.12
2023-05-06T23:11:34.063Z,12.18
2023-05-06T23:14:00.671Z,12.37
2023-05-06T23:16:28.894Z,12.44
2023-05-06T23:18:58.411Z,12.57
2023-05-06T23:21:25.869Z,12.08
2023-05-06T23:23:52.600Z,11.23
2023-05-06T23:26:19.167Z,10.55
2023-05-06T23:28:45.802Z,10.13
2023-05-06T23:31:12.567Z,10.53
2023-05-06T23:33:39.318Z,11.14
2023-05-06T23:36:06.522Z,11.40
2023-05-06T23:38:33.174Z,11.74
2023-05-06T23:41:00.048Z,12.06
2023-05-06T23:43:26.798Z,12.29
2023-05-06T23:45:53.447Z,12.28
2023-05-06T23:48:20.095Z,11.63
2023-05-06T23:50:46.841Z,10.96
2023-05-06T23:53:13.426Z,10.50
2023-05-06T23:55:42.030Z,10.22
2023-05-06T23:58:08.952Z,10.65
